sensor_id;sensor_type;location;lat;lon;timestamp;temperature;humidity
23731;DHT22;12046;44.702;10.622;2023-02-18T00:01:28;9.00;99.90
23731;DHT22;12046;44.702;10.622;2023-02-18T00:03:58;9.00;99.90
23731;DHT22;12046;44.702;10.622;2023-02-18T00:06:27;9.00;99.90
23731;DHT22;12046;44.702;10.622;2023-02-18T00:08:53;9.00;99.90
23731;DHT22;12046;44.702;10.622;2023-02-18T00:11:20;9.10;99.90
23731;DHT22;12046;44.702;10.622;2023-02-18T00:13:54;9.10;99.90
23731;DHT22;12046;44.702;10.622;2023-02-18T00:16:21;9.20;99.90
23731;DHT22;12046;44.702;10.622;2023-02-18T00:18:48;9.20;99.90
23731;DHT22;12046;44.702;10.622;2023-02-18T00:21:14;9.30;99.90
23731;DHT22;12046;44.702;10.622;2023-02-18T00:23:40;9.30;99.90
23731;DHT22;12046;44.702;10.622;2023-02-18T00:26:09;9.30;99.90
23731;DHT22;12046;44.702;10.622;2023-02-18T00:28:35;9.30;99.90
23731;DHT22;12046;44.702;10.622;2023-02-18T00:31:09;9.30;99.90
23731;DHT22;12046;44.702;10.622;2023-02-18T00:33:35;9.30;99.90
23731;DHT22;12046;44.702;10.622;2023-02-18T00:36:02;9.30;99.90
23731;DHT22;12046;44.702;10.622;2023-02-18T00:38:29;9.20;99.90
23731;DHT22;12046;44.702;10.622;2023-02-18T00:40:54;9.20;99.90
23731;DHT22;12046;44.702;10.622;2023-02-18T00:43:20;9.10;99.90
23731;DHT22;12046;44.702;10.622;2023-02-18T00:45:46;9.10;99.90
23731;DHT22;12046;44.702;10.622;2023-02-18T00:48:12;9.10;99.90
23731;DHT22;12046;44.702;10.622;2023-02-18T00:50:37;9.00;99.90
23731;DHT22;12046;44.702;10.622;2023-02-18T00:53:03;9.00;99.90
23731;DHT22;12046;44.702;10.622;2023-02-18T00:55:29;9.00;99.90
23731;DHT22;12046;44.702;10.622;2023-02-18T00:57:55;8.90;99.90
23731;DHT22;12046;44.702;10.622;2023-02-18T01:00:21;8.90;99.90
23731;DHT22;12046;44.702;10.622;2023-02-18T01:02:47;8.80;99.90
23731;DHT22;12046;44.702;10.622;2023-02-18T01:05:13;8.80;99.90
23731;DHT22;12046;44.702;10.622;2023-02-18T01:07:38;8.80;99.90
23731;DHT22;12046;44.702;10.622;2023-02-18T01:10:05;8.80;99.90
23731;DHT22;12046;44.702;10.622;2023-02-18T01:12:31;8.80;99.90
23731;DHT22;12046;44.702;10.622;2023-02-18T01:14:56;8.80;99.90
23731;DHT22;12046;44.702;10.622;2023-02-18T01:17:22;8.70;99.90
23731;DHT22;12046;44.702;10.622;2023-02-18T01:19:48;8.70;99.90
23731;DHT22;12046;44.702;10.622;2023-02-18T01:22:13;8.70;99.90
23731;DHT22;12046;44.702;10.622;2023-02-18T01:24:39;8.60;99.90
23731;DHT22;12046;44.702;10.622;2023-02-18T01:27:05;8.70;99.90
23731;DHT22;12046;44.702;10.622;2023-02-18T01:29:30;8.60;99.90
23731;DHT22;12046;44.702;10.622;2023-02-18T01:31:56;8.60;99.90
23731;DHT22;12046;44.702;10.622;2023-02-18T01:34:22;8.60;99.90
23731;DHT22;12046;44.702;10.622;2023-02-18T01:36:48;8.60;99.90
23731;DHT22;12046;44.702;10.622;2023-02-18T01:39:13;8.60;99.90
23731;DHT22;12046;44.702;10.622;2023-02-18T01:41:39;8.60;99.90
23731;DHT22;12046;44.702;10.622;2023-02-18T01:44:25;8.60;99.90
23731;DHT22;12046;44.702;10.622;2023-02-18T01:46:51;8.60;99.90
23731;DHT22;12046;44.702;10.622;2023-02-18T01:49:24;8.60;99.90
23731;DHT22;12046;44.702;10.622;2023-02-18T01:51:56;8.60;99.90
23731;DHT22;12046;44.702;10.622;2023-02-18T01:54:32;8.60;99.90
23731;DHT22;12046;44.702;10.622;2023-02-18T01:57:12;8.60;99.90
23731;DHT22;12046;44.702;10.622;2023-02-18T02:00:26;8.50;99.90
23731;DHT22;12046;44.702;10.622;2023-02-18T02:02:28;8.60;99.90
23731;DHT22;12046;44.702;10.622;2023-02-18T02:04:54;8.50;99.90
23731;DHT22;12046;44.702;10.622;2023-02-18T02:07:22;8.50;99.90
23731;DHT22;12046;44.702;10.622;2023-02-18T02:09:50;8.50;99.90
23731;DHT22;12046;44.702;10.622;2023-02-18T02:15:05;8.40;99.90
23731;DHT22;12046;44.702;10.622;2023-02-18T02:26:56;8.20;99.90
23731;DHT22;12046;44.702;10.622;2023-02-18T02:35:40;8.00;99.90
23731;DHT22;12046;44.702;10.622;2023-02-18T02:40:45;7.90;99.90
23731;DHT22;12046;44.702;10.622;2023-02-18T02:46:10;7.80;99.90
23731;DHT22;12046;44.702;10.622;2023-02-18T02:48:57;7.80;99.90
23731;DHT22;12046;44.702;10.622;2023-02-18T02:51:47;7.70;99.90
23731;DHT22;12046;44.702;10.622;2023-02-18T02:54:16;7.70;99.90
23731;DHT22;12046;44.702;10.622;2023-02-18T02:56:42;7.70;99.90
23731;DHT22;12046;44.702;10.622;2023-02-18T02:59:32;7.70;99.90
23731;DHT22;12046;44.702;10.622;2023-02-18T03:18:35;7.80;99.90
23731;DHT22;12046;44.702;10.622;2023-02-18T03:21:13;7.80;99.90
23731;DHT22;12046;44.702;10.622;2023-02-18T03:24:02;7.80;99.90
23731;DHT22;12046;44.702;10.622;2023-02-18T03:26:31;7.80;99.90
23731;DHT22;12046;44.702;10.622;2023-02-18T03:29:01;7.90;99.90
23731;DHT22;12046;44.702;10.622;2023-02-18T03:31:29;7.90;99.90
23731;DHT22;12046;44.702;10.622;2023-02-18T03:34:03;7.90;99.90
23731;DHT22;12046;44.702;10.622;2023-02-18T03:36:31;7.90;99.90
23731;DHT22;12046;44.702;10.622;2023-02-18T03:39:02;7.80;99.90
23731;DHT22;12046;44.702;10.622;2023-02-18T03:41:29;7.80;99.90
23731;DHT22;12046;44.702;10.622;2023-02-18T03:44:00;7.70;99.90
23731;DHT22;12046;44.702;10.622;2023-02-18T03:46:27;7.60;99.90
23731;DHT22;12046;44.702;10.622;2023-02-18T03:48:53;7.50;99.90
23731;DHT22;12046;44.702;10.622;2023-02-18T03:51:19;7.40;99.90
23731;DHT22;12046;44.702;10.622;2023-02-18T03:53:46;7.30;99.90
23731;DHT22;12046;44.702;10.622;2023-02-18T03:56:13;7.20;99.90
23731;DHT22;12046;44.702;10.622;2023-02-18T03:58:39;7.20;99.90
23731;DHT22;12046;44.702;10.622;2023-02-18T04:01:05;7.10;99.90
23731;DHT22;12046;44.702;10.622;2023-02-18T04:03:31;7.00;99.90
23731;DHT22;12046;44.702;10.622;2023-02-18T04:05:57;7.10;99.90
23731;DHT22;12046;44.702;10.622;2023-02-18T04:08:23;7.00;99.90
23731;DHT22;12046;44.702;10.622;2023-02-18T04:10:49;7.00;99.90
23731;DHT22;12046;44.702;10.622;2023-02-18T04:13:15;6.90;99.90
23731;DHT22;12046;44.702;10.622;2023-02-18T04:15:44;7.00;99.90
23731;DHT22;12046;44.702;10.622;2023-02-18T04:18:11;7.00;99.90
23731;DHT22;12046;44.702;10.622;2023-02-18T04:20:37;6.90;99.90
23731;DHT22;12046;44.702;10.622;2023-02-18T04:23:03;7.00;99.90
23731;DHT22;12046;44.702;10.622;2023-02-18T04:25:30;6.90;99.90
23731;DHT22;12046;44.702;10.622;2023-02-18T04:27:56;6.90;99.90
23731;DHT22;12046;44.702;10.622;2023-02-18T04:30:22;6.90;99.90
23731;DHT22;12046;44.702;10.622;2023-02-18T04:32:48;6.80;99.90
23731;DHT22;12046;44.702;10.622;2023-02-18T04:35:14;6.90;99.90
23731;DHT22;12046;44.702;10.622;2023-02-18T04:37:40;6.80;99.90
23731;DHT22;12046;44.702;10.622;2023-02-18T04:40:06;6.80;99.90
23731;DHT22;12046;44.702;10.622;2023-02-18T04:42:33;6.90;99.90
23731;DHT22;12046;44.702;10.622;2023-02-18T04:44:59;6.90;99.90
23731;DHT22;12046;44.702;10.622;2023-02-18T04:47:24;6.80;99.90
23731;DHT22;12046;44.702;10.622;2023-02-18T04:49:50;6.80;99.90
23731;DHT22;12046;44.702;10.622;2023-02-18T04:52:16;6.80;99.90
23731;DHT22;12046;44.702;10.622;2023-02-18T04:54:41;6.80;99.90
23731;DHT22;12046;44.702;10.622;2023-02-18T04:57:07;6.80;99.90
23731;DHT22;12046;44.702;10.622;2023-02-18T04:59:33;6.80;99.90
23731;DHT22;12046;44.702;10.622;2023-02-18T05:01:59;6.80;99.90
23731;DHT22;12046;44.702;10.622;2023-02-18T05:04:24;6.80;99.90
23731;DHT22;12046;44.702;10.622;2023-02-18T05:06:50;6.80;99.90
23731;DHT22;12046;44.702;10.622;2023-02-18T05:09:16;6.80;99.90
23731;DHT22;12046;44.702;10.622;2023-02-18T05:11:42;6.80;99.90
23731;DHT22;12046;44.702;10.622;2023-02-18T05:14:08;6.80;99.90
23731;DHT22;12046;44.702;10.622;2023-02-18T05:16:34;6.80;99.90
23731;DHT22;12046;44.702;10.622;2023-02-18T05:18:59;6.80;99.90
23731;DHT22;12046;44.702;10.622;2023-02-18T05:21:25;6.80;99.90
23731;DHT22;12046;44.702;10.622;2023-02-18T05:23:51;6.80;99.90
23731;DHT22;12046;44.702;10.622;2023-02-18T05:26:17;6.80;99.90
23731;DHT22;12046;44.702;10.622;2023-02-18T05:28:43;6.80;99.90
23731;DHT22;12046;44.702;10.622;2023-02-18T05:31:08;6.80;99.90
23731;DHT22;12046;44.702;10.622;2023-02-18T05:33:34;6.80;99.90
23731;DHT22;12046;44.702;10.622;2023-02-18T05:36:00;6.80;99.90
23731;DHT22;12046;44.702;10.622;2023-02-18T05:38:25;6.80;99.90
23731;DHT22;12046;44.702;10.622;2023-02-18T05:40:51;6.80;99.90
23731;DHT22;12046;44.702;10.622;2023-02-18T05:43:17;6.80;99.90
23731;DHT22;12046;44.702;10.622;2023-02-18T05:45:43;6.80;99.90
23731;DHT22;12046;44.702;10.622;2023-02-18T05:48:09;6.70;99.90
23731;DHT22;12046;44.702;10.622;2023-02-18T05:50:34;6.80;99.90
23731;DHT22;12046;44.702;10.622;2023-02-18T05:53:00;6.80;99.90
23731;DHT22;12046;44.702;10.622;2023-02-18T05:55:26;6.70;99.90
23731;DHT22;12046;44.702;10.622;2023-02-18T05:57:52;6.80;99.90
23731;DHT22;12046;44.702;10.622;2023-02-18T06:00:17;6.80;99.90
23731;DHT22;12046;44.702;10.622;2023-02-18T06:02:43;6.80;99.90
23731;DHT22;12046;44.702;10.622;2023-02-18T06:05:09;6.80;99.90
23731;DHT22;12046;44.702;10.622;2023-02-18T06:07:35;6.90;99.90
23731;DHT22;12046;44.702;10.622;2023-02-18T06:10:02;6.80;99.90
23731;DHT22;12046;44.702;10.622;2023-02-18T06:12:27;6.80;99.90
23731;DHT22;12046;44.702;10.622;2023-02-18T06:14:53;6.80;99.90
23731;DHT22;12046;44.702;10.622;2023-02-18T06:17:19;6.80;99.90
23731;DHT22;12046;44.702;10.622;2023-02-18T06:19:47;6.80;99.90
23731;DHT22;12046;44.702;10.622;2023-02-18T06:22:13;6.80;99.90
23731;DHT22;12046;44.702;10.622;2023-02-18T06:24:39;6.80;99.90
23731;DHT22;12046;44.702;10.622;2023-02-18T06:27:05;6.80;99.90
23731;DHT22;12046;44.702;10.622;2023-02-18T06:29:31;6.70;99.90
23731;DHT22;12046;44.702;10.622;2023-02-18T06:31:58;6.70;99.90
23731;DHT22;12046;44.702;10.622;2023-02-18T06:34:24;6.70;99.90
23731;DHT22;12046;44.702;10.622;2023-02-18T06:36:51;6.80;99.90
23731;DHT22;12046;44.702;10.622;2023-02-18T06:39:16;6.80;99.90
23731;DHT22;12046;44.702;10.622;2023-02-18T06:41:42;6.90;99.90
23731;DHT22;12046;44.702;10.622;2023-02-18T06:44:08;6.90;99.90
23731;DHT22;12046;44.702;10.622;2023-02-18T06:46:34;6.90;99.90
23731;DHT22;12046;44.702;10.622;2023-02-18T06:49:00;7.00;99.90
23731;DHT22;12046;44.702;10.622;2023-02-18T06:51:25;7.10;99.90
23731;DHT22;12046;44.702;10.622;2023-02-18T06:53:51;7.10;99.90
23731;DHT22;12046;44.702;10.622;2023-02-18T06:56:17;7.20;99.90
23731;DHT22;12046;44.702;10.622;2023-02-18T06:58:43;7.20;99.90
23731;DHT22;12046;44.702;10.622;2023-02-18T07:01:09;7.30;99.90
23731;DHT22;12046;44.702;10.622;2023-02-18T07:03:34;7.40;99.90
23731;DHT22;12046;44.702;10.622;2023-02-18T07:06:00;7.40;99.90
23731;DHT22;12046;44.702;10.622;2023-02-18T07:08:26;7.50;99.90
23731;DHT22;12046;44.702;10.622;2023-02-18T07:10:52;7.60;99.90
23731;DHT22;12046;44.702;10.622;2023-02-18T07:13:17;7.70;99.90
23731;DHT22;12046;44.702;10.622;2023-02-18T07:15:43;7.90;99.90
23731;DHT22;12046;44.702;10.622;2023-02-18T07:18:09;8.00;99.90
23731;DHT22;12046;44.702;10.622;2023-02-18T07:20:35;8.20;99.90
23731;DHT22;12046;44.702;10.622;2023-02-18T07:23:00;8.30;99.90
23731;DHT22;12046;44.702;10.622;2023-02-18T07:25:26;8.50;99.90
23731;DHT22;12046;44.702;10.622;2023-02-18T07:27:52;8.60;99.90
23731;DHT22;12046;44.702;10.622;2023-02-18T07:30:19;8.80;99.90
23731;DHT22;12046;44.702;10.622;2023-02-18T07:32:44;8.90;99.90
23731;DHT22;12046;44.702;10.622;2023-02-18T07:35:13;9.00;99.90
23731;DHT22;12046;44.702;10.622;2023-02-18T07:37:42;9.10;99.90
23731;DHT22;12046;44.702;10.622;2023-02-18T07:40:11;9.10;99.90
23731;DHT22;12046;44.702;10.622;2023-02-18T07:42:37;9.20;99.90
23731;DHT22;12046;44.702;10.622;2023-02-18T07:45:03;9.30;99.90
23731;DHT22;12046;44.702;10.622;2023-02-18T07:47:28;9.30;99.90
23731;DHT22;12046;44.702;10.622;2023-02-18T07:49:54;9.40;99.90
23731;DHT22;12046;44.702;10.622;2023-02-18T07:52:20;9.40;99.90
23731;DHT22;12046;44.702;10.622;2023-02-18T07:54:46;9.50;99.90
23731;DHT22;12046;44.702;10.622;2023-02-18T07:57:11;9.60;99.90
23731;DHT22;12046;44.702;10.622;2023-02-18T07:59:37;9.70;99.90
23731;DHT22;12046;44.702;10.622;2023-02-18T08:02:04;9.80;99.90
23731;DHT22;12046;44.702;10.622;2023-02-18T08:04:32;9.90;99.90
23731;DHT22;12046;44.702;10.622;2023-02-18T08:06:58;10.10;99.90
23731;DHT22;12046;44.702;10.622;2023-02-18T08:09:23;10.40;99.90
23731;DHT22;12046;44.702;10.622;2023-02-18T08:11:49;10.70;99.90
23731;DHT22;12046;44.702;10.622;2023-02-18T08:14:15;11.00;99.90
23731;DHT22;12046;44.702;10.622;2023-02-18T08:16:41;11.40;99.90
23731;DHT22;12046;44.702;10.622;2023-02-18T08:19:06;11.80;99.90
23731;DHT22;12046;44.702;10.622;2023-02-18T08:21:33;12.10;99.90
23731;DHT22;12046;44.702;10.622;2023-02-18T08:23:59;12.40;99.90
23731;DHT22;12046;44.702;10.622;2023-02-18T08:26:25;12.70;99.20
23731;DHT22;12046;44.702;10.622;2023-02-18T08:28:51;12.90;98.40
23731;DHT22;12046;44.702;10.622;2023-02-18T08:31:19;13.10;97.70
23731;DHT22;12046;44.702;10.622;2023-02-18T08:33:46;13.40;96.90
23731;DHT22;12046;44.702;10.622;2023-02-18T08:36:12;13.60;96.20
23731;DHT22;12046;44.702;10.622;2023-02-18T08:38:38;13.80;95.60
23731;DHT22;12046;44.702;10.622;2023-02-18T08:41:05;13.90;95.10
23731;DHT22;12046;44.702;10.622;2023-02-18T08:43:31;14.00;94.80
23731;DHT22;12046;44.702;10.622;2023-02-18T08:45:58;14.20;94.40
23731;DHT22;12046;44.702;10.622;2023-02-18T08:48:24;14.40;94.00
23731;DHT22;12046;44.702;10.622;2023-02-18T08:50:50;14.60;93.50
23731;DHT22;12046;44.702;10.622;2023-02-18T08:53:16;14.80;93.10
23731;DHT22;12046;44.702;10.622;2023-02-18T08:55:43;15.10;92.80
23731;DHT22;12046;44.702;10.622;2023-02-18T08:58:09;15.40;92.10
23731;DHT22;12046;44.702;10.622;2023-02-18T09:00:37;15.70;91.40
23731;DHT22;12046;44.702;10.622;2023-02-18T09:03:03;16.00;91.10
23731;DHT22;12046;44.702;10.622;2023-02-18T09:05:30;16.30;90.30
23731;DHT22;12046;44.702;10.622;2023-02-18T09:07:58;16.60;89.00
23731;DHT22;12046;44.702;10.622;2023-02-18T09:10:24;16.80;88.10
23731;DHT22;12046;44.702;10.622;2023-02-18T09:12:50;17.10;86.80
23731;DHT22;12046;44.702;10.622;2023-02-18T09:15:16;17.40;86.20
23731;DHT22;12046;44.702;10.622;2023-02-18T09:17:42;17.90;85.10
23731;DHT22;12046;44.702;10.622;2023-02-18T09:20:09;18.40;83.20
23731;DHT22;12046;44.702;10.622;2023-02-18T09:22:34;19.10;81.70
23731;DHT22;12046;44.702;10.622;2023-02-18T09:25:01;20.10;79.60
23731;DHT22;12046;44.702;10.622;2023-02-18T09:27:27;21.10;76.20
23731;DHT22;12046;44.702;10.622;2023-02-18T09:29:53;22.30;72.80
23731;DHT22;12046;44.702;10.622;2023-02-18T09:32:19;23.90;69.00
23731;DHT22;12046;44.702;10.622;2023-02-18T09:34:44;25.90;64.10
23731;DHT22;12046;44.702;10.622;2023-02-18T09:37:10;27.70;58.30
23731;DHT22;12046;44.702;10.622;2023-02-18T09:39:36;29.20;54.70
23731;DHT22;12046;44.702;10.622;2023-02-18T09:42:05;30.50;52.10
23731;DHT22;12046;44.702;10.622;2023-02-18T09:44:33;31.80;50.30
23731;DHT22;12046;44.702;10.622;2023-02-18T09:47:09;32.50;47.90
23731;DHT22;12046;44.702;10.622;2023-02-18T09:49:40;33.10;47.40
23731;DHT22;12046;44.702;10.622;2023-02-18T09:52:30;34.10;46.70
23731;DHT22;12046;44.702;10.622;2023-02-18T09:54:56;35.30;45.50
23731;DHT22;12046;44.702;10.622;2023-02-18T09:57:34;36.40;43.80
23731;DHT22;12046;44.702;10.622;2023-02-18T10:00:13;37.10;42.80
23731;DHT22;12046;44.702;10.622;2023-02-18T10:02:57;38.00;41.90
23731;DHT22;12046;44.702;10.622;2023-02-18T10:05:25;38.90;41.10
23731;DHT22;12046;44.702;10.622;2023-02-18T10:07:55;39.70;40.00
23731;DHT22;12046;44.702;10.622;2023-02-18T10:12:55;40.80;38.70
23731;DHT22;12046;44.702;10.622;2023-02-18T10:15:24;41.10;38.20
23731;DHT22;12046;44.702;10.622;2023-02-18T10:17:51;41.50;37.80
23731;DHT22;12046;44.702;10.622;2023-02-18T10:20:23;42.10;37.20
23731;DHT22;12046;44.702;10.622;2023-02-18T10:22:50;42.70;36.80
23731;DHT22;12046;44.702;10.622;2023-02-18T10:25:20;43.30;36.30
23731;DHT22;12046;44.702;10.622;2023-02-18T10:27:47;43.70;35.30
23731;DHT22;12046;44.702;10.622;2023-02-18T10:32:43;44.20;35.20
23731;DHT22;12046;44.702;10.622;2023-02-18T10:38:43;45.00;34.80
23731;DHT22;12046;44.702;10.622;2023-02-18T10:51:55;45.20;33.80
23731;DHT22;12046;44.702;10.622;2023-02-18T10:54:26;45.10;33.80
23731;DHT22;12046;44.702;10.622;2023-02-18T10:57:23;44.70;33.60
23731;DHT22;12046;44.702;10.622;2023-02-18T11:03:15;44.00;33.80
23731;DHT22;12046;44.702;10.622;2023-02-18T11:05:42;43.80;33.80
23731;DHT22;12046;44.702;10.622;2023-02-18T11:08:15;43.60;33.80
23731;DHT22;12046;44.702;10.622;2023-02-18T11:10:44;43.40;33.90
23731;DHT22;12046;44.702;10.622;2023-02-18T11:13:13;43.50;34.00
23731;DHT22;12046;44.702;10.622;2023-02-18T11:16:05;43.40;33.80
23731;DHT22;12046;44.702;10.622;2023-02-18T11:18:37;43.70;33.70
23731;DHT22;12046;44.702;10.622;2023-02-18T11:21:28;43.90;33.60
23731;DHT22;12046;44.702;10.622;2023-02-18T11:23:56;44.00;33.50
23731;DHT22;12046;44.702;10.622;2023-02-18T11:26:32;44.00;33.40
23731;DHT22;12046;44.702;10.622;2023-02-18T11:29:04;43.80;33.30
23731;DHT22;12046;44.702;10.622;2023-02-18T11:31:43;43.20;33.50
23731;DHT22;12046;44.702;10.622;2023-02-18T11:34:16;42.50;33.60
23731;DHT22;12046;44.702;10.622;2023-02-18T11:36:55;41.60;34.00
23731;DHT22;12046;44.702;10.622;2023-02-18T11:39:32;40.50;34.40
23731;DHT22;12046;44.702;10.622;2023-02-18T11:42:02;39.60;34.90
23731;DHT22;12046;44.702;10.622;2023-02-18T11:47:20;38.20;35.50
23731;DHT22;12046;44.702;10.622;2023-02-18T11:50:21;37.80;35.80
23731;DHT22;12046;44.702;10.622;2023-02-18T11:52:48;37.50;35.90
23731;DHT22;12046;44.702;10.622;2023-02-18T11:55:21;37.20;35.90
23731;DHT22;12046;44.702;10.622;2023-02-18T11:57:54;36.90;35.90
23731;DHT22;12046;44.702;10.622;2023-02-18T12:00:24;36.60;36.10
23731;DHT22;12046;44.702;10.622;2023-02-18T12:02:55;36.00;36.20
23731;DHT22;12046;44.702;10.622;2023-02-18T12:05:25;34.90;36.80
23731;DHT22;12046;44.702;10.622;2023-02-18T12:08:16;33.60;37.80
23731;DHT22;12046;44.702;10.622;2023-02-18T12:10:50;32.50;39.00
23731;DHT22;12046;44.702;10.622;2023-02-18T12:13:38;31.40;39.90
23731;DHT22;12046;44.702;10.622;2023-02-18T12:19:12;29.80;41.30
23731;DHT22;12046;44.702;10.622;2023-02-18T12:25:30;28.90;42.90
23731;DHT22;12046;44.702;10.622;2023-02-18T12:39:48;27.90;44.10
23731;DHT22;12046;44.702;10.622;2023-02-18T12:42:45;27.60;44.00
23731;DHT22;12046;44.702;10.622;2023-02-18T12:56:37;26.60;45.00
23731;DHT22;12046;44.702;10.622;2023-02-18T13:05:16;26.30;45.50
23731;DHT22;12046;44.702;10.622;2023-02-18T13:13:19;26.10;45.80
23731;DHT22;12046;44.702;10.622;2023-02-18T13:15:55;25.90;45.80
23731;DHT22;12046;44.702;10.622;2023-02-18T13:18:29;25.70;46.20
23731;DHT22;12046;44.702;10.622;2023-02-18T13:21:03;25.60;46.50
23731;DHT22;12046;44.702;10.622;2023-02-18T13:26:23;25.40;46.80
23731;DHT22;12046;44.702;10.622;2023-02-18T13:32:03;25.40;47.20
23731;DHT22;12046;44.702;10.622;2023-02-18T13:34:37;25.40;47.00
23731;DHT22;12046;44.702;10.622;2023-02-18T13:39:59;25.30;47.10
23731;DHT22;12046;44.702;10.622;2023-02-18T13:42:33;25.20;47.20
23731;DHT22;12046;44.702;10.622;2023-02-18T13:47:44;25.30;47.40
23731;DHT22;12046;44.702;10.622;2023-02-18T13:50:24;25.40;47.30
23731;DHT22;12046;44.702;10.622;2023-02-18T13:53:25;25.40;47.20
23731;DHT22;12046;44.702;10.622;2023-02-18T13:59:18;25.30;47.30
23731;DHT22;12046;44.702;10.622;2023-02-18T14:01:50;25.20;47.60
23731;DHT22;12046;44.702;10.622;2023-02-18T14:10:02;24.70;48.20
23731;DHT22;12046;44.702;10.622;2023-02-18T14:13:22;24.60;48.40
23731;DHT22;12046;44.702;10.622;2023-02-18T14:20:45;23.90;49.20
23731;DHT22;12046;44.702;10.622;2023-02-18T14:33:34;23.60;50.00
23731;DHT22;12046;44.702;10.622;2023-02-18T14:36:23;23.50;50.20
23731;DHT22;12046;44.702;10.622;2023-02-18T14:49:52;25.10;48.90
23731;DHT22;12046;44.702;10.622;2023-02-18T14:52:42;26.60;47.50
23731;DHT22;12046;44.702;10.622;2023-02-18T14:55:31;27.90;45.80
23731;DHT22;12046;44.702;10.622;2023-02-18T14:58:28;29.10;45.00
23731;DHT22;12046;44.702;10.622;2023-02-18T15:00:54;30.40;44.00
23731;DHT22;12046;44.702;10.622;2023-02-18T15:03:25;31.30;43.10
23731;DHT22;12046;44.702;10.622;2023-02-18T15:05:54;32.00;41.80
23731;DHT22;12046;44.702;10.622;2023-02-18T15:08:22;32.40;41.50
23731;DHT22;12046;44.702;10.622;2023-02-18T15:10:59;32.50;40.90
23731;DHT22;12046;44.702;10.622;2023-02-18T15:13:37;32.30;41.20
23731;DHT22;12046;44.702;10.622;2023-02-18T15:16:22;32.30;41.40
23731;DHT22;12046;44.702;10.622;2023-02-18T15:18:57;32.70;41.50
23731;DHT22;12046;44.702;10.622;2023-02-18T15:21:34;33.00;41.10
23731;DHT22;12046;44.702;10.622;2023-02-18T15:24:07;33.30;40.60
23731;DHT22;12046;44.702;10.622;2023-02-18T15:26:36;33.40;40.40
23731;DHT22;12046;44.702;10.622;2023-02-18T15:29:20;33.30;40.10
23731;DHT22;12046;44.702;10.622;2023-02-18T15:31:47;33.30;40.30
23731;DHT22;12046;44.702;10.622;2023-02-18T15:36:55;33.20;40.20
23731;DHT22;12046;44.702;10.622;2023-02-18T15:39:22;33.10;40.30
23731;DHT22;12046;44.702;10.622;2023-02-18T15:41:56;32.90;40.30
23731;DHT22;12046;44.702;10.622;2023-02-18T15:44:29;32.70;40.20
23731;DHT22;12046;44.702;10.622;2023-02-18T15:47:03;32.30;40.40
23731;DHT22;12046;44.702;10.622;2023-02-18T15:49:32;31.90;40.70
23731;DHT22;12046;44.702;10.622;2023-02-18T15:52:00;31.50;41.10
23731;DHT22;12046;44.702;10.622;2023-02-18T15:54:30;31.10;41.20
23731;DHT22;12046;44.702;10.622;2023-02-18T15:57:00;30.20;41.50
23731;DHT22;12046;44.702;10.622;2023-02-18T15:59:33;29.10;42.40
23731;DHT22;12046;44.702;10.622;2023-02-18T16:04:44;26.50;44.90
23731;DHT22;12046;44.702;10.622;2023-02-18T16:07:28;25.40;46.10
23731;DHT22;12046;44.702;10.622;2023-02-18T16:10:08;24.30;47.50
23731;DHT22;12046;44.702;10.622;2023-02-18T16:12:36;23.50;48.70
23731;DHT22;12046;44.702;10.622;2023-02-18T16:15:03;22.60;50.00
23731;DHT22;12046;44.702;10.622;2023-02-18T16:17:29;22.00;50.90
23731;DHT22;12046;44.702;10.622;2023-02-18T16:20:01;21.40;51.80
23731;DHT22;12046;44.702;10.622;2023-02-18T16:22:35;21.00;52.60
23731;DHT22;12046;44.702;10.622;2023-02-18T16:25:15;20.60;53.40
23731;DHT22;12046;44.702;10.622;2023-02-18T16:30:23;19.90;54.70
23731;DHT22;12046;44.702;10.622;2023-02-18T16:32:49;19.70;55.30
23731;DHT22;12046;44.702;10.622;2023-02-18T16:35:17;19.40;55.90
23731;DHT22;12046;44.702;10.622;2023-02-18T16:37:43;19.20;56.40
23731;DHT22;12046;44.702;10.622;2023-02-18T16:42:55;18.80;57.30
23731;DHT22;12046;44.702;10.622;2023-02-18T16:45:35;18.60;57.70
23731;DHT22;12046;44.702;10.622;2023-02-18T16:48:02;18.40;58.10
23731;DHT22;12046;44.702;10.622;2023-02-18T16:50:30;18.20;58.60
23731;DHT22;12046;44.702;10.622;2023-02-18T16:52:57;18.00;59.10
23731;DHT22;12046;44.702;10.622;2023-02-18T16:55:25;17.90;59.60
23731;DHT22;12046;44.702;10.622;2023-02-18T16:57:51;17.70;59.90
23731;DHT22;12046;44.702;10.622;2023-02-18T17:00:17;17.50;60.20
23731;DHT22;12046;44.702;10.622;2023-02-18T17:02:55;17.40;60.70
23731;DHT22;12046;44.702;10.622;2023-02-18T17:05:26;17.40;61.30
23731;DHT22;12046;44.702;10.622;2023-02-18T17:07:53;17.30;61.60
23731;DHT22;12046;44.702;10.622;2023-02-18T17:10:19;17.20;62.00
23731;DHT22;12046;44.702;10.622;2023-02-18T17:12:45;17.20;62.20
23731;DHT22;12046;44.702;10.622;2023-02-18T17:15:22;17.10;62.50
23731;DHT22;12046;44.702;10.622;2023-02-18T17:17:52;17.00;62.60
23731;DHT22;12046;44.702;10.622;2023-02-18T17:20:18;16.90;62.90
23731;DHT22;12046;44.702;10.622;2023-02-18T17:22:45;16.80;63.10
23731;DHT22;12046;44.702;10.622;2023-02-18T17:25:19;16.80;63.50
23731;DHT22;12046;44.702;10.622;2023-02-18T17:27:45;16.70;63.80
23731;DHT22;12046;44.702;10.622;2023-02-18T17:30:11;16.60;64.10
23731;DHT22;12046;44.702;10.622;2023-02-18T17:32:37;16.50;64.30
23731;DHT22;12046;44.702;10.622;2023-02-18T17:35:03;16.40;64.50
23731;DHT22;12046;44.702;10.622;2023-02-18T17:37:32;16.40;65.00
23731;DHT22;12046;44.702;10.622;2023-02-18T17:40:01;16.30;65.40
23731;DHT22;12046;44.702;10.622;2023-02-18T17:42:26;16.20;65.60
23731;DHT22;12046;44.702;10.622;2023-02-18T17:44:52;16.10;65.80
23731;DHT22;12046;44.702;10.622;2023-02-18T17:47:18;16.00;66.20
23731;DHT22;12046;44.702;10.622;2023-02-18T17:49:44;15.90;66.60
23731;DHT22;12046;44.702;10.622;2023-02-18T17:52:23;15.80;67.00
23731;DHT22;12046;44.702;10.622;2023-02-18T17:54:52;15.70;67.40
23731;DHT22;12046;44.702;10.622;2023-02-18T17:57:17;15.60;67.80
23731;DHT22;12046;44.702;10.622;2023-02-18T17:59:43;15.50;68.20
23731;DHT22;12046;44.702;10.622;2023-02-18T18:02:27;15.50;68.70
23731;DHT22;12046;44.702;10.622;2023-02-18T18:04:53;15.40;69.20
23731;DHT22;12046;44.702;10.622;2023-02-18T18:07:20;15.40;69.60
23731;DHT22;12046;44.702;10.622;2023-02-18T18:09:45;15.30;70.00
23731;DHT22;12046;44.702;10.622;2023-02-18T18:12:14;15.30;70.40
23731;DHT22;12046;44.702;10.622;2023-02-18T18:14:40;15.30;70.70
23731;DHT22;12046;44.702;10.622;2023-02-18T18:17:12;15.20;70.90
23731;DHT22;12046;44.702;10.622;2023-02-18T18:19:39;15.10;71.20
23731;DHT22;12046;44.702;10.622;2023-02-18T18:22:06;15.10;71.70